createdAt,value
2023-04-12T00:00:01.209Z,61
2023-04-12T00:05:01.208Z,61
2023-04-12T00:10:01.154Z,61
2023-04-12T00:15:01.177Z,61
2023-04-12T00:20:01.168Z,62
2023-04-12T00:25:01.161Z,61
2023-04-12T00:30:01.171Z,62
2023-04-12T00:35:01.162Z,62
2023-04-12T00:40:01.126Z,62
2023-04-12T00:45:01.183Z,62
2023-04-12T00:50:01.158Z,62
2023-04-12T00:55:01.130Z,62
2023-04-12T01:00:01.183Z,62
2023-04-12T01:05:01.204Z,62
2023-04-12T01:10:01.142Z,62
2023-04-12T01:15:01.141Z,62
2023-04-12T01:20:01.175Z,62
2023-04-12T01:25:01.146Z,62
2023-04-12T01:30:01.153Z,62
2023-04-12T01:35:01.161Z,62
2023-04-12T01:40:01.153Z,62
2023-04-12T01:45:01.161Z,62
2023-04-12T01:50:01.168Z,62
2023-04-12T01:55:01.198Z,62
2023-04-12T02:00:01.196Z,62
2023-04-12T02:05:01.205Z,62
2023-04-12T02:10:01.180Z,63
2023-04-12T02:15:01.134Z,63
2023-04-12T02:20:01.147Z,63
2023-04-12T02:25:01.153Z,63
2023-04-12T02:30:01.176Z,63
2023-04-12T02:35:01.150Z,64
2023-04-12T02:40:00.191Z,64
2023-04-12T02:45:01.185Z,64
2023-04-12T02:50:01.177Z,64
2023-04-12T02:55:01.133Z,64
2023-04-12T03:00:01.178Z,65
2023-04-12T03:05:01.209Z,65
2023-04-12T03:10:01.164Z,65
2023-04-12T03:15:01.176Z,65
2023-04-12T03:20:01.147Z,65
2023-04-12T03:25:01.198Z,65
2023-04-12T03:30:01.177Z,65
2023-04-12T03:35:01.167Z,65
2023-04-12T03:40:01.131Z,66
2023-04-12T03:45:01.169Z,66
2023-04-12T03:50:10.947Z,66
2023-04-12T03:55:01.163Z,67
2023-04-12T04:00:01.197Z,67
2023-04-12T04:05:01.193Z,67
2023-04-12T04:10:01.169Z,67
2023-04-12T04:15:01.169Z,67
2023-04-12T04:20:01.175Z,67
2023-04-12T04:25:01.165Z,67
2023-04-12T04:30:01.117Z,67
2023-04-12T04:35:01.154Z,67
2023-04-12T04:40:01.194Z,68
2023-04-12T04:45:01.158Z,68
2023-04-12T04:50:01.180Z,68
2023-04-12T04:55:02.422Z,68
2023-04-12T05:00:01.188Z,68
2023-04-12T05:05:01.179Z,68
2023-04-12T05:10:00.236Z,69
2023-04-12T05:20:01.136Z,69
2023-04-12T05:25:01.168Z,69
2023-04-12T05:30:01.233Z,69
2023-04-12T05:35:01.137Z,70
2023-04-12T05:40:01.159Z,70
2023-04-12T05:45:01.176Z,70
2023-04-12T05:50:01.196Z,70
2023-04-12T05:55:01.181Z,70
2023-04-12T06:00:01.181Z,71
2023-04-12T06:05:01.337Z,71
2023-04-12T06:10:01.148Z,71
2023-04-12T06:15:01.233Z,71
2023-04-12T06:20:01.230Z,71
2023-04-12T06:25:01.141Z,71
2023-04-12T06:30:01.228Z,72
2023-04-12T06:35:01.127Z,72
2023-04-12T06:40:01.161Z,72
2023-04-12T06:45:01.171Z,73
2023-04-12T06:50:01.190Z,73
2023-04-12T06:55:01.159Z,73
2023-04-12T07:00:05.166Z,73
2023-04-12T07:05:01.176Z,73
2023-04-12T07:10:01.165Z,73
2023-04-12T07:15:01.143Z,74
2023-04-12T07:30:00.584Z,74
2023-04-12T07:35:00.274Z,75
2023-04-12T07:40:00.398Z,75
2023-04-12T07:45:00.341Z,75
2023-04-12T07:50:00.634Z,75
2023-04-12T07:55:00.282Z,75
2023-04-12T08:00:00.303Z,76
2023-04-12T08:05:00.253Z,76
2023-04-12T08:10:00.214Z,76
2023-04-12T08:15:00.236Z,76
2023-04-12T08:20:00.272Z,76
2023-04-12T08:25:00.271Z,76
2023-04-12T08:30:00.263Z,77
2023-04-12T08:35:00.254Z,76
2023-04-12T08:40:00.241Z,77
2023-04-12T08:45:00.391Z,77
2023-04-12T08:50:00.269Z,77
2023-04-12T08:55:00.230Z,77
2023-04-12T09:00:00.317Z,77
2023-04-12T09:05:00.401Z,77
2023-04-12T09:10:00.274Z,77
2023-04-12T09:15:00.239Z,77
2023-04-12T09:20:00.208Z,77
2023-04-12T09:25:00.233Z,78
2023-04-12T09:30:00.378Z,77
2023-04-12T09:35:00.274Z,77
2023-04-12T09:40:00.283Z,77
2023-04-12T09:45:00.233Z,77
2023-04-12T09:50:00.293Z,77
2023-04-12T09:55:00.470Z,78
2023-04-12T10:00:00.323Z,78
2023-04-12T10:05:00.454Z,78
2023-04-12T10:10:00.306Z,78
2023-04-12T10:15:00.248Z,78
2023-04-12T10:20:00.272Z,78
2023-04-12T10:25:00.251Z,78
2023-04-12T10:30:00.307Z,78
2023-04-12T10:35:00.230Z,78
2023-04-12T10:40:00.275Z,79
2023-04-12T10:45:01.254Z,79
2023-04-12T10:50:00.320Z,79
2023-04-12T10:55:00.228Z,79
2023-04-12T11:00:00.306Z,79
2023-04-12T11:05:00.308Z,79
2023-04-12T11:10:00.275Z,79
2023-04-12T11:15:00.297Z,79
2023-04-12T11:20:00.319Z,79
2023-04-12T11:25:00.336Z,78
2023-04-12T11:30:00.681Z,78
2023-04-12T11:35:00.269Z,78
2023-04-12T11:40:00.284Z,78
2023-04-12T11:45:04.763Z,78
2023-04-12T11:50:00.285Z,78
2023-04-12T11:55:00.291Z,78
2023-04-12T12:00:05.234Z,78
2023-04-12T12:05:00.379Z,79
2023-04-12T12:10:00.275Z,79
2023-04-12T12:15:00.234Z,79
2023-04-12T12:20:00.441Z,79
2023-04-12T12:25:00.249Z,79
2023-04-12T12:30:00.304Z,79
2023-04-12T12:35:00.239Z,78
2023-04-12T12:40:00.261Z,78
2023-04-12T12:45:00.237Z,78
2023-04-12T12:50:00.293Z,78
2023-04-12T12:55:00.262Z,78
2023-04-12T13:00:00.259Z,77
2023-04-12T13:05:00.267Z,76
2023-04-12T13:10:00.693Z,76
2023-04-12T13:15:13.358Z,76
2023-04-12T13:20:00.279Z,76
2023-04-12T13:25:00.251Z,74
2023-04-12T13:30:00.554Z,73
2023-04-12T13:35:00.255Z,72
2023-04-12T13:40:00.344Z,71
2023-04-12T13:45:00.475Z,72
2023-04-12T13:50:00.293Z,72
2023-04-12T13:55:00.228Z,72
2023-04-12T14:00:00.281Z,71
2023-04-12T14:05:00.430Z,71
2023-04-12T14:10:00.275Z,70
2023-04-12T14:15:00.266Z,70
2023-04-12T14:20:00.325Z,69
2023-04-12T14:25:00.199Z,69
2023-04-12T14:30:00.319Z,68
2023-04-12T14:35:00.234Z,68
2023-04-12T14:40:00.286Z,67
2023-04-12T14:45:00.225Z,67
2023-04-12T14:50:00.281Z,66
2023-04-12T14:55:00.245Z,65
2023-04-12T15:00:00.330Z,65
2023-04-12T15:05:00.469Z,65
2023-04-12T15:10:00.281Z,65
2023-04-12T15:15:00.486Z,66
2023-04-12T15:20:00.375Z,67
2023-04-12T15:25:00.254Z,68
2023-04-12T15:30:00.482Z,69
2023-04-12T15:35:02.756Z,70
2023-04-12T15:40:00.322Z,71
2023-04-12T15:45:00.209Z,71
2023-04-12T15:50:00.277Z,71
2023-04-12T15:55:00.196Z,71
2023-04-12T16:00:00.334Z,71
2023-04-12T16:05:00.281Z,71
2023-04-12T16:10:00.240Z,71
2023-04-12T16:15:00.240Z,71
2023-04-12T16:20:00.305Z,71
2023-04-12T16:25:00.215Z,72
2023-04-12T16:30:00.314Z,72
2023-04-12T16:35:00.283Z,72
2023-04-12T16:40:00.326Z,72
2023-04-12T16:45:00.320Z,71
2023-04-12T16:50:00.292Z,71
2023-04-12T16:55:00.257Z,71
2023-04-12T17:00:05.144Z,71
2023-04-12T17:05:00.296Z,70
2023-04-12T17:10:00.305Z,70
2023-04-12T17:15:00.297Z,69
2023-04-12T17:20:00.295Z,68
2023-04-12T17:25:05.150Z,68
2023-04-12T17:30:00.311Z,68
2023-04-12T17:35:00.226Z,69
2023-04-12T17:40:00.319Z,69
2023-04-12T17:45:00.267Z,69
2023-04-12T17:50:00.306Z,69
2023-04-12T17:55:00.301Z,69
2023-04-12T18:00:00.332Z,69
2023-04-12T18:05:00.300Z,70
2023-04-12T18:10:00.340Z,70
2023-04-12T18:15:00.288Z,71
2023-04-12T18:20:02.567Z,71
2023-04-12T18:25:00.208Z,71
2023-04-12T18:30:00.345Z,71
2023-04-12T18:35:00.211Z,71
2023-04-12T18:40:00.291Z,72
2023-04-12T18:45:00.270Z,72
2023-04-12T18:50:00.321Z,72
2023-04-12T18:55:00.253Z,72
2023-04-12T19:00:00.356Z,72
2023-04-12T19:05:00.234Z,73
2023-04-12T19:10:00.328Z,73
2023-04-12T19:15:00.234Z,73
2023-04-12T19:20:00.304Z,73
2023-04-12T19:25:00.277Z,73
2023-04-12T19:30:00.316Z,73
2023-04-12T19:35:00.294Z,73
2023-04-12T19:40:00.315Z,73
2023-04-12T19:45:00.290Z,73
2023-04-12T19:50:00.349Z,74
2023-04-12T19:55:01.884Z,74
2023-04-12T20:00:05.328Z,74
2023-04-12T20:05:00.228Z,74
2023-04-12T20:10:00.299Z,74
2023-04-12T20:15:00.239Z,74
2023-04-12T20:20:00.295Z,74
2023-04-12T20:25:00.302Z,74
2023-04-12T20:30:00.307Z,74
2023-04-12T20:35:00.279Z,75
2023-04-12T20:40:00.306Z,75
2023-04-12T20:45:00.285Z,75
2023-04-12T20:50:00.357Z,75
2023-04-12T20:55:00.286Z,75
2023-04-12T21:00:00.268Z,75
2023-04-12T21:05:00.435Z,75
2023-04-12T21:10:00.263Z,75
2023-04-12T21:15:00.199Z,75
2023-04-12T21:20:00.285Z,75
2023-04-12T21:25:00.194Z,75
2023-04-12T21:30:00.266Z,75
2023-04-12T21:35:00.279Z,75
2023-04-12T21:40:00.182Z,74
2023-04-12T21:45:00.241Z,74
2023-04-12T21:50:00.234Z,74
2023-04-12T21:55:00.292Z,74
2023-04-12T22:00:00.356Z,74
2023-04-12T22:05:00.240Z,74
2023-04-12T22:10:00.256Z,73
2023-04-12T22:15:00.261Z,73
2023-04-12T22:20:00.272Z,73
2023-04-12T22:25:00.322Z,73
2023-04-12T22:30:00.236Z,73
2023-04-12T22:35:08.514Z,72
2023-04-12T22:40:00.387Z,72
2023-04-12T22:45:00.261Z,72
2023-04-12T22:50:00.178Z,72
2023-04-12T22:55:00.354Z,72
2023-04-12T23:00:00.286Z,72
2023-04-12T23:05:00.382Z,72
2023-04-12T23:10:00.243Z,72
2023-04-12T23:15:00.187Z,72
2023-04-12T23:20:00.213Z,72
2023-04-12T23:25:00.307Z,72
2023-04-12T23:30:00.229Z,73
2023-04-12T23:35:00.263Z,73
2023-04-12T23:40:00.267Z,73
2023-04-12T23:45:00.276Z,73
2023-04-12T23:50:00.282Z,73
2023-04-12T23:55:00.271Z,73
